createdAt,value
2023-04-27T00:01:02.753Z,101008.22
2023-04-27T00:03:33.187Z,101006.34
2023-04-27T00:06:03.640Z,101008.13
2023-04-27T00:08:34.382Z,101015.81
2023-04-27T00:11:05.060Z,101013.09
2023-04-27T00:13:36.123Z,101025.31
2023-04-27T00:16:08.539Z,101025.09
2023-04-27T00:18:39.711Z,101025.09
2023-04-27T00:21:11.462Z,101022.66
2023-04-27T00:23:42.737Z,101020.09
2023-04-27T00:26:13.122Z,101024.34
2023-04-27T00:28:45.707Z,101030.41
2023-04-27T00:31:16.679Z,101032.91
2023-04-27T00:33:47.777Z,101049.97
2023-04-27T00:36:19.121Z,101045.59
2023-04-27T00:38:51.295Z,101049.84
2023-04-27T00:41:22.367Z,101049.78
2023-04-27T00:43:53.352Z,101047.16
2023-04-27T00:46:23.797Z,101048.06
2023-04-27T00:48:54.226Z,101058.50
2023-04-27T00:51:29.505Z,101060.66
2023-04-27T00:54:02.395Z,101055.97
2023-04-27T00:56:33.528Z,101057.44
2023-04-27T00:59:03.871Z,101056.38
2023-04-27T01:01:34.948Z,101058.25
2023-04-27T01:04:06.576Z,101063.63
2023-04-27T01:06:37.194Z,101066.19
2023-04-27T01:09:08.488Z,101058.00
2023-04-27T01:11:38.877Z,101061.69
2023-04-27T01:14:09.957Z,101070.88
2023-04-27T01:16:40.998Z,101067.59
2023-04-27T01:19:13.080Z,101062.88
2023-04-27T01:21:44.452Z,101068.47
2023-04-27T01:24:14.926Z,101075.03
2023-04-27T01:26:45.371Z,101072.25
2023-04-27T01:29:15.798Z,101063.72
2023-04-27T01:31:46.413Z,101067.31
2023-04-27T01:34:18.591Z,101063.81
2023-04-27T01:36:50.661Z,101057.75
2023-04-27T01:39:21.382Z,101061.88
2023-04-27T01:41:52.706Z,101064.00
2023-04-27T01:44:24.547Z,101054.94
2023-04-27T01:46:55.221Z,101062.19
2023-04-27T01:49:25.900Z,101056.34
2023-04-27T01:51:56.351Z,101065.19
2023-04-27T01:54:28.830Z,101072.09
2023-04-27T01:57:00.205Z,101074.69
2023-04-27T01:59:31.098Z,101068.81
2023-04-27T02:02:01.900Z,101071.25
2023-04-27T02:04:33.175Z,101077.41
2023-04-27T02:07:05.029Z,101075.56
2023-04-27T02:09:35.265Z,101064.69
2023-04-27T02:12:13.403Z,101072.78
2023-04-27T02:14:44.296Z,101070.25
2023-04-27T02:17:14.643Z,101063.09
2023-04-27T02:19:45.341Z,101053.66
2023-04-27T02:22:15.838Z,101053.72
2023-04-27T02:24:46.314Z,101052.72
2023-04-27T02:27:16.716Z,101044.03
2023-04-27T02:29:47.685Z,101040.44
2023-04-27T02:32:19.185Z,101043.94
2023-04-27T02:34:50.331Z,101029.38
2023-04-27T02:37:21.747Z,101039.88
2023-04-27T02:39:52.429Z,101034.66
2023-04-27T02:42:22.850Z,101043.53
2023-04-27T02:44:53.435Z,101037.28
2023-04-27T02:47:23.868Z,101034.75
2023-04-27T02:49:54.820Z,101026.06
2023-04-27T02:52:25.315Z,101034.00
2023-04-27T02:54:56.442Z,101020.94
2023-04-27T02:57:26.826Z,101023.47
2023-04-27T02:59:57.288Z,101020.94
2023-04-27T03:02:28.494Z,101014.84
2023-04-27T03:04:59.114Z,101015.72
2023-04-27T03:07:30.572Z,101010.41
2023-04-27T03:10:07.048Z,101016.47
2023-04-27T03:12:37.619Z,101008.63
2023-04-27T03:15:09.356Z,101000.78
2023-04-27T03:17:39.777Z,100990.34
2023-04-27T03:20:11.721Z,100992.00
2023-04-27T03:22:42.501Z,100987.72
2023-04-27T03:25:13.269Z,100986.78
2023-04-27T03:27:44.941Z,100985.00
2023-04-27T03:30:15.746Z,100990.19
2023-04-27T03:32:47.743Z,100979.88
2023-04-27T03:35:18.496Z,100985.84
2023-04-27T03:37:48.828Z,100972.72
2023-04-27T03:40:19.395Z,100973.66
2023-04-27T03:42:49.887Z,100981.41
2023-04-27T03:45:20.805Z,100974.31
2023-04-27T03:47:51.299Z,100969.09
2023-04-27T03:50:22.261Z,100962.19
2023-04-27T03:52:52.674Z,100949.88
2023-04-27T03:55:23.323Z,100958.66
2023-04-27T03:57:54.666Z,100950.75
2023-04-27T04:00:25.195Z,100946.34
2023-04-27T04:02:56.922Z,100942.91
2023-04-27T04:05:27.465Z,100941.19
2023-04-27T04:07:58.425Z,100931.53
2023-04-27T04:10:31.033Z,100929.75
2023-04-27T04:13:01.485Z,100927.03
2023-04-27T04:15:32.281Z,100923.59
2023-04-27T04:18:03.139Z,100918.34
2023-04-27T04:20:37.675Z,100925.25
2023-04-27T04:23:08.755Z,100927.88
2023-04-27T04:25:41.796Z,100915.66
2023-04-27T04:28:12.485Z,100914.75
2023-04-27T04:30:43.133Z,100908.59
2023-04-27T04:33:13.771Z,100911.09
2023-04-27T04:35:44.808Z,100912.72
2023-04-27T04:38:15.468Z,100916.09
2023-04-27T04:40:46.215Z,100906.56
2023-04-27T04:43:16.677Z,100901.19
2023-04-27T04:45:47.458Z,100900.94
2023-04-27T04:48:18.165Z,100900.75
2023-04-27T04:50:49.172Z,100890.13
2023-04-27T04:53:21.195Z,100893.41
2023-04-27T04:55:51.939Z,100884.53
2023-04-27T04:58:22.652Z,100899.97
2023-04-27T05:00:53.286Z,100892.13
2023-04-27T05:03:23.660Z,100885.91
2023-04-27T05:05:53.957Z,100870.00
2023-04-27T05:08:24.410Z,100870.84
2023-04-27T05:10:56.068Z,100865.47
2023-04-27T05:13:27.369Z,100870.53
2023-04-27T05:15:57.818Z,100868.56
2023-04-27T05:18:28.259Z,100875.50
2023-04-27T05:20:58.638Z,100868.38
2023-04-27T05:23:29.353Z,100862.22
2023-04-27T05:25:59.698Z,100854.22
2023-04-27T05:28:30.118Z,100856.81
2023-04-27T05:31:00.469Z,100851.31
2023-04-27T05:33:30.784Z,100846.00
2023-04-27T05:36:01.569Z,100841.69
2023-04-27T05:38:31.942Z,100839.81
2023-04-27T05:41:02.693Z,100838.53
2023-04-27T05:43:33.873Z,100838.53
2023-04-27T05:46:04.506Z,100841.34
2023-04-27T05:48:34.996Z,100828.16
2023-04-27T05:51:06.413Z,100833.16
2023-04-27T05:53:37.732Z,100829.44
2023-04-27T05:56:08.770Z,100817.19
2023-04-27T05:58:39.457Z,100819.72
2023-04-27T06:01:10.055Z,100831.97
2023-04-27T06:03:40.907Z,100820.56
2023-04-27T06:06:11.497Z,100811.66
2023-04-27T06:08:41.955Z,100816.06
2023-04-27T06:11:12.404Z,100819.78
2023-04-27T06:13:42.994Z,100822.25
2023-04-27T06:16:13.381Z,100824.84
2023-04-27T06:18:43.744Z,100824.84
2023-04-27T06:21:14.366Z,100832.59
2023-04-27T06:23:44.717Z,100829.09
2023-04-27T06:26:15.101Z,100820.28
2023-04-27T06:28:45.327Z,100823.75
2023-04-27T06:31:15.834Z,100821.97
2023-04-27T06:36:33.246Z,100820.19
2023-04-27T06:39:04.544Z,100815.72
2023-04-27T06:41:35.509Z,100814.84
2023-04-27T06:44:06.433Z,100813.09
2023-04-27T06:46:37.185Z,100817.47
2023-04-27T06:49:07.927Z,100820.09
2023-04-27T06:51:38.629Z,100836.56
2023-04-27T06:54:09.866Z,100840.84
2023-04-27T06:56:40.156Z,100835.72
2023-04-27T06:59:11.040Z,100833.84
2023-04-27T07:01:42.397Z,100824.22
2023-04-27T07:04:13.013Z,100821.69
2023-04-27T07:06:43.598Z,100822.53
2023-04-27T07:09:26.692Z,100814.69
2023-04-27T07:12:00.397Z,100815.41
2023-04-27T07:14:31.359Z,100817.13
2023-04-27T07:17:02.524Z,100824.03
2023-04-27T07:19:32.881Z,100825.81
2023-04-27T07:22:03.444Z,100819.75
2023-04-27T07:24:33.809Z,100818.69
2023-04-27T07:27:05.599Z,100820.47
2023-04-27T07:29:36.002Z,100825.72
2023-04-27T07:32:09.213Z,100810.78
2023-04-27T07:34:52.160Z,100822.91
2023-04-27T07:37:25.598Z,100827.31
2023-04-27T07:39:55.965Z,100820.31
2023-04-27T07:42:26.604Z,100821.97
2023-04-27T07:44:56.864Z,100821.16
2023-04-27T07:47:27.555Z,100824.50
2023-04-27T07:49:58.002Z,100825.34
2023-04-27T07:52:28.479Z,100834.97
2023-04-27T07:54:59.177Z,100836.63
2023-04-27T07:57:29.407Z,100840.13
2023-04-27T07:59:59.736Z,100834.91
2023-04-27T08:02:33.228Z,100828.72
2023-04-27T08:05:04.675Z,100825.16
2023-04-27T08:07:42.548Z,100821.69
2023-04-27T08:10:15.838Z,100821.59
2023-04-27T08:12:46.540Z,100828.50
2023-04-27T08:15:17.842Z,100835.47
2023-04-27T08:17:48.907Z,100838.06
2023-04-27T08:20:19.700Z,100830.22
2023-04-27T08:22:49.980Z,100832.84
2023-04-27T08:25:20.486Z,100839.75
2023-04-27T08:27:50.772Z,100838.81
2023-04-27T08:30:21.354Z,100839.66
2023-04-27T08:32:51.756Z,100848.34
2023-04-27T08:35:22.170Z,100847.44
2023-04-27T08:37:52.812Z,100844.81
2023-04-27T08:40:23.376Z,100841.31
2023-04-27T08:42:59.643Z,100843.03
2023-04-27T08:45:30.634Z,100838.63
2023-04-27T08:48:01.304Z,100837.69
2023-04-27T08:50:33.099Z,100829.00
2023-04-27T08:53:04.136Z,100831.63
2023-04-27T08:55:34.709Z,100823.78
2023-04-27T08:58:05.735Z,100824.59
2023-04-27T09:00:44.798Z,100821.03
2023-04-27T09:03:27.698Z,100816.66
2023-04-27T09:06:05.321Z,100816.66
2023-04-27T09:08:48.570Z,100818.31
2023-04-27T09:11:32.956Z,100809.63
2023-04-27T09:14:23.607Z,100803.47
2023-04-27T09:17:01.654Z,100805.34
2023-04-27T09:19:33.101Z,100806.09
2023-04-27T09:22:07.572Z,100813.00
2023-04-27T09:24:39.222Z,100815.63
2023-04-27T09:27:10.479Z,100811.34
2023-04-27T09:29:41.300Z,100808.63
2023-04-27T09:32:22.525Z,100812.06
2023-04-27T09:34:52.964Z,100806.84
2023-04-27T09:37:24.386Z,100819.94
2023-04-27T09:39:54.882Z,100825.16
2023-04-27T09:42:25.800Z,100825.06
2023-04-27T09:44:57.304Z,100825.16
2023-04-27T09:47:30.209Z,100821.59
2023-04-27T09:50:03.715Z,100817.31
2023-04-27T09:52:34.795Z,100819.94
2023-04-27T09:55:07.342Z,100819.09
2023-04-27T09:57:53.754Z,100821.72
2023-04-27T10:00:43.442Z,100819.09
2023-04-27T10:03:43.204Z,100816.56
2023-04-27T10:06:44.883Z,100827.06
2023-04-27T10:09:16.056Z,100835.75
2023-04-27T10:11:47.205Z,100832.19
2023-04-27T10:14:25.445Z,100832.19
2023-04-27T10:16:58.493Z,100826.94
2023-04-27T10:19:29.450Z,100829.56
2023-04-27T10:22:09.933Z,100823.50
2023-04-27T10:24:45.670Z,100824.22
2023-04-27T10:27:24.468Z,100816.47
2023-04-27T10:29:55.624Z,100826.84
2023-04-27T10:32:29.157Z,100824.22
2023-04-27T10:35:10.888Z,100830.41
2023-04-27T10:37:45.250Z,100831.25
2023-04-27T10:40:19.196Z,100827.69
2023-04-27T10:42:50.938Z,100839.94
2023-04-27T10:45:31.862Z,100831.25
2023-04-27T10:48:03.579Z,100833.03
2023-04-27T10:50:34.128Z,100835.53
2023-04-27T10:53:07.684Z,100844.22
2023-04-27T10:55:39.097Z,100846.00
2023-04-27T10:58:09.573Z,100846.00
2023-04-27T11:00:46.308Z,100857.31
2023-04-27T11:03:24.620Z,100851.25
2023-04-27T11:06:06.586Z,100845.94
2023-04-27T11:08:47.176Z,100851.25
2023-04-27T11:11:19.650Z,100859.94
2023-04-27T11:13:57.210Z,100857.31
2023-04-27T11:16:27.791Z,100863.41
2023-04-27T11:18:59.709Z,100866.03
2023-04-27T11:21:30.646Z,100872.19
2023-04-27T11:24:13.212Z,100869.56
2023-04-27T11:26:44.431Z,100873.91
2023-04-27T11:29:15.508Z,100879.13
2023-04-27T11:31:52.907Z,100886.13
2023-04-27T11:34:35.816Z,100887.00
2023-04-27T11:37:18.005Z,100889.59
2023-04-27T11:39:49.151Z,100883.50
2023-04-27T11:42:25.710Z,100887.91
2023-04-27T11:45:00.997Z,100898.38
2023-04-27T11:47:33.070Z,100896.59
2023-04-27T11:50:09.658Z,100891.34
2023-04-27T11:52:44.525Z,100898.38
2023-04-27T11:55:17.458Z,100904.44
2023-04-27T11:57:48.108Z,100914.06
2023-04-27T12:00:19.744Z,100920.16
2023-04-27T12:02:50.221Z,100914.91
2023-04-27T12:05:21.581Z,100927.16
2023-04-27T12:07:52.529Z,100928.00
2023-04-27T12:10:22.954Z,100935.03
2023-04-27T12:12:53.512Z,100927.16
2023-04-27T12:15:23.940Z,100934.19
2023-04-27T12:17:54.419Z,100940.25
2023-04-27T12:20:25.002Z,100939.41
2023-04-27T12:22:56.065Z,100935.03
2023-04-27T12:25:26.521Z,100933.34
2023-04-27T12:27:57.469Z,100939.41
2023-04-27T12:30:28.089Z,100939.41
2023-04-27T12:33:00.989Z,100944.66
2023-04-27T12:35:33.365Z,100949.88
2023-04-27T12:38:05.055Z,100944.66
2023-04-27T12:40:36.049Z,100937.75
2023-04-27T12:43:07.096Z,100933.34
2023-04-27T12:45:37.592Z,100938.56
2023-04-27T12:48:09.004Z,100945.59
2023-04-27T12:50:42.216Z,100945.59
2023-04-27T12:53:13.025Z,100956.06
2023-04-27T12:55:43.436Z,100950.81
2023-04-27T12:58:14.107Z,100959.53
2023-04-27T13:00:44.648Z,100954.38
2023-04-27T13:03:15.448Z,100958.69
2023-04-27T13:05:47.148Z,100962.25
2023-04-27T13:08:17.989Z,100963.91
2023-04-27T13:10:48.241Z,100957.00
2023-04-27T13:13:18.908Z,100953.56
2023-04-27T13:15:49.302Z,100955.31
2023-04-27T13:18:19.806Z,100952.72
2023-04-27T13:20:51.196Z,100949.22
2023-04-27T13:23:21.728Z,100950.94
2023-04-27T13:25:52.023Z,100953.56
2023-04-27T13:28:22.434Z,100954.47
2023-04-27T13:30:53.823Z,100943.16
2023-04-27T13:33:24.125Z,100945.75
2023-04-27T13:35:54.742Z,100937.91
2023-04-27T13:38:25.726Z,100939.69
2023-04-27T13:40:56.344Z,100948.38
2023-04-27T13:43:28.601Z,100946.72
2023-04-27T13:46:01.749Z,100951.94
2023-04-27T13:48:33.488Z,100943.25
2023-04-27T13:51:03.963Z,100939.69
2023-04-27T13:53:34.720Z,100936.22
2023-04-27T13:56:05.226Z,100932.78
2023-04-27T13:58:35.689Z,100934.56
2023-04-27T14:01:07.121Z,100931.94
2023-04-27T14:03:39.787Z,100931.94
2023-04-27T14:06:11.726Z,100929.31
2023-04-27T14:08:43.040Z,100923.25
2023-04-27T14:11:17.112Z,100909.31
2023-04-27T14:13:47.910Z,100909.31
2023-04-27T14:16:18.528Z,100907.53
2023-04-27T14:18:49.128Z,100902.41
2023-04-27T14:21:19.591Z,100905.03
2023-04-27T14:23:50.040Z,100905.84
2023-04-27T14:26:20.314Z,100902.41
2023-04-27T14:28:50.757Z,100907.63
2023-04-27T14:31:21.187Z,100904.16
2023-04-27T14:33:51.693Z,100897.25
2023-04-27T14:36:22.128Z,100902.47
2023-04-27T14:38:52.562Z,100898.06
2023-04-27T14:41:22.942Z,100890.31
2023-04-27T14:43:53.283Z,100891.16
2023-04-27T14:46:23.905Z,100884.25
2023-04-27T14:48:54.344Z,100877.25
2023-04-27T14:51:25.605Z,100869.38
2023-04-27T14:53:56.269Z,100874.63
2023-04-27T14:56:26.954Z,100858.06
2023-04-27T14:58:57.513Z,100851.16
2023-04-27T15:01:28.769Z,100863.31
2023-04-27T15:03:59.695Z,100862.47
2023-04-27T15:06:31.786Z,100870.31
2023-04-27T15:09:02.614Z,100876.41
2023-04-27T15:11:32.970Z,100880.03
2023-04-27T15:14:03.716Z,100877.41
2023-04-27T15:16:34.207Z,100884.34
2023-04-27T15:19:05.044Z,100885.25
2023-04-27T15:21:36.075Z,100880.13
2023-04-27T15:24:06.850Z,100883.59
2023-04-27T15:26:37.368Z,100877.50
2023-04-27T15:29:08.030Z,100880.97
2023-04-27T15:31:38.624Z,100877.50
2023-04-27T15:34:08.976Z,100877.63
2023-04-27T15:36:39.477Z,100876.66
2023-04-27T15:39:10.322Z,100876.78
2023-04-27T15:41:42.079Z,100883.69
2023-04-27T15:44:12.850Z,100887.25
2023-04-27T15:46:43.582Z,100891.59
2023-04-27T15:49:14.656Z,100896.84
2023-04-27T15:51:45.289Z,100901.16
2023-04-27T15:54:15.696Z,100896.94
2023-04-27T15:56:46.110Z,100898.63
2023-04-27T15:59:16.967Z,100891.72
2023-04-27T16:01:47.676Z,100886.47
2023-04-27T16:04:18.233Z,100880.41
2023-04-27T16:06:48.884Z,100884.78
2023-04-27T16:09:19.278Z,100883.97
2023-04-27T16:11:49.699Z,100893.59
2023-04-27T16:14:20.424Z,100891.81
2023-04-27T16:16:52.805Z,100886.69
2023-04-27T16:19:23.497Z,100905.84
2023-04-27T16:21:54.170Z,100902.38
2023-04-27T16:24:24.967Z,100897.16
2023-04-27T16:26:55.410Z,100897.16
2023-04-27T16:29:26.802Z,100900.59
2023-04-27T16:31:57.247Z,100896.28
2023-04-27T16:34:27.522Z,100901.50
2023-04-27T16:36:57.960Z,100905.06
2023-04-27T16:39:28.736Z,100909.47
2023-04-27T16:41:59.054Z,100914.69
2023-04-27T16:44:30.261Z,100912.06
2023-04-27T16:47:00.710Z,100913.84
2023-04-27T16:49:30.895Z,100900.88
2023-04-27T16:52:01.400Z,100893.03
2023-04-27T16:54:32.091Z,100899.94
2023-04-27T16:57:03.369Z,100892.19
2023-04-27T16:59:34.036Z,100888.69
2023-04-27T17:02:17.056Z,100883.47
2023-04-27T17:04:51.922Z,100887.00
2023-04-27T17:07:22.773Z,100880.00
2023-04-27T17:09:53.185Z,100887.94
2023-04-27T17:12:23.589Z,100882.72
2023-04-27T17:14:54.328Z,100887.13
2023-04-27T17:17:24.810Z,100888.91
2023-04-27T17:19:55.434Z,100886.28
2023-04-27T17:22:25.892Z,100888.06
2023-04-27T17:24:56.672Z,100881.16
2023-04-27T17:27:27.249Z,100881.16
2023-04-27T17:29:58.130Z,100881.97
2023-04-27T17:32:28.582Z,100883.81
2023-04-27T17:34:59.753Z,100882.88
2023-04-27T17:37:30.308Z,100883.00
2023-04-27T17:40:01.415Z,100881.22
2023-04-27T17:42:32.604Z,100876.91
2023-04-27T17:45:03.125Z,100883.00
2023-04-27T17:47:35.196Z,100877.75
2023-04-27T17:50:05.958Z,100870.00
2023-04-27T17:52:36.145Z,100870.84
2023-04-27T17:55:06.758Z,100857.00
2023-04-27T17:57:38.009Z,100860.47
2023-04-27T18:00:08.971Z,100857.88
2023-04-27T18:02:39.767Z,100861.38
2023-04-27T18:05:10.559Z,100861.38
2023-04-27T18:07:40.835Z,100860.53
2023-04-27T18:10:11.648Z,100853.63
2023-04-27T18:12:42.214Z,100854.47
2023-04-27T18:15:12.963Z,100849.25
2023-04-27T18:17:43.489Z,100847.56
2023-04-27T18:20:14.254Z,100857.19
2023-04-27T18:22:44.842Z,100846.78
2023-04-27T18:25:15.322Z,100860.75
2023-04-27T18:27:46.700Z,100858.19
2023-04-27T18:30:16.979Z,100856.34
2023-04-27T18:32:47.570Z,100863.44
2023-04-27T18:35:18.095Z,100860.81
2023-04-27T18:37:49.858Z,100866.16
2023-04-27T18:40:24.080Z,100858.31
2023-04-27T18:42:55.369Z,100859.13
2023-04-27T18:45:25.811Z,100854.84
2023-04-27T18:47:56.937Z,100854.00
2023-04-27T18:50:27.416Z,100847.94
2023-04-27T18:52:58.015Z,100854.00
2023-04-27T18:55:28.521Z,100850.56
2023-04-27T18:57:58.874Z,100859.31
2023-04-27T19:00:30.213Z,100859.31
2023-04-27T19:03:00.979Z,100855.81
2023-04-27T19:05:31.629Z,100863.66
2023-04-27T19:08:02.952Z,100857.69
2023-04-27T19:10:33.397Z,100851.63
2023-04-27T19:13:03.840Z,100845.56
2023-04-27T19:15:34.220Z,100836.88
2023-04-27T19:18:10.473Z,100838.63
2023-04-27T19:20:42.307Z,100829.94
2023-04-27T19:23:14.962Z,100829.09
2023-04-27T19:25:45.502Z,100830.88
2023-04-27T19:28:24.812Z,100822.19
2023-04-27T19:30:55.458Z,100819.56
2023-04-27T19:33:25.902Z,100829.19
2023-04-27T19:35:56.332Z,100827.50
2023-04-27T19:38:27.211Z,100824.91
2023-04-27T19:40:57.868Z,100824.91
2023-04-27T19:43:30.530Z,100825.84
2023-04-27T19:46:00.888Z,100840.66
2023-04-27T19:48:31.519Z,100834.59
2023-04-27T19:51:02.197Z,100839.81
2023-04-27T19:53:32.904Z,100844.22
2023-04-27T19:56:04.141Z,100843.38
2023-04-27T19:58:36.119Z,100840.88
2023-04-27T20:01:06.590Z,100844.41
2023-04-27T20:03:39.402Z,100840.88
2023-04-27T20:06:11.863Z,100848.78
2023-04-27T20:08:42.288Z,100839.25
2023-04-27T20:11:12.658Z,100836.63
2023-04-27T20:13:43.719Z,100832.34
2023-04-27T20:16:14.530Z,100829.72
2023-04-27T20:18:46.774Z,100821.88
2023-04-27T20:21:17.257Z,100825.44
2023-04-27T20:23:50.371Z,100837.69
2023-04-27T20:26:20.710Z,100836.84
2023-04-27T20:28:51.248Z,100838.59
2023-04-27T20:31:22.175Z,100837.75
2023-04-27T20:33:52.647Z,100843.91
2023-04-27T20:36:24.607Z,100843.91
2023-04-27T20:38:55.109Z,100853.53
2023-04-27T20:41:26.358Z,100847.47
2023-04-27T20:43:56.968Z,100862.31
2023-04-27T20:46:28.018Z,100864.09
2023-04-27T20:48:58.367Z,100865.88
2023-04-27T20:51:29.317Z,100862.41
2023-04-27T20:53:59.761Z,100875.50
2023-04-27T20:56:34.736Z,100883.41
2023-04-27T20:59:06.237Z,100879.94
2023-04-27T21:01:39.012Z,100886.94
2023-04-27T21:04:09.847Z,100893.97
2023-04-27T21:06:40.502Z,100901.81
2023-04-27T21:09:10.912Z,100900.97
2023-04-27T21:11:42.012Z,100898.41
2023-04-27T21:14:12.485Z,100893.19
2023-04-27T21:16:42.794Z,100888.06
2023-04-27T21:19:16.267Z,100891.50
2023-04-27T21:21:46.948Z,100891.50
2023-04-27T21:24:17.451Z,100883.75
2023-04-27T21:26:47.904Z,100882.91
2023-04-27T21:29:18.646Z,100888.16
2023-04-27T21:31:48.919Z,100887.31
2023-04-27T21:34:19.266Z,100887.38
2023-04-27T21:36:50.001Z,100876.09
2023-04-27T21:39:20.389Z,100877.00
2023-04-27T21:41:50.740Z,100867.41
2023-04-27T21:44:21.119Z,100861.31
2023-04-27T21:46:51.992Z,100870.09
2023-04-27T21:49:22.544Z,100867.50
2023-04-27T21:51:52.890Z,100871.88
2023-04-27T21:54:23.939Z,100876.28
2023-04-27T21:56:54.546Z,100878.06
2023-04-27T21:59:24.962Z,100866.72
2023-04-27T22:01:55.590Z,100863.28
2023-04-27T22:04:27.417Z,100854.59
2023-04-27T22:06:58.066Z,100844.97
2023-04-27T22:09:28.657Z,100844.13
2023-04-27T22:11:59.903Z,100838.06
2023-04-27T22:14:30.767Z,100845.91
2023-04-27T22:17:02.235Z,100855.53
2023-04-27T22:19:32.831Z,100855.53
2023-04-27T22:22:03.255Z,100852.91
2023-04-27T22:24:33.606Z,100852.91
2023-04-27T22:27:05.501Z,100851.97
2023-04-27T22:29:35.894Z,100852.91
2023-04-27T22:32:06.682Z,100853.75
2023-04-27T22:34:37.533Z,100861.59
2023-04-27T22:37:08.514Z,100858.13
2023-04-27T22:39:39.308Z,100864.19
2023-04-27T22:42:09.996Z,100860.75
2023-04-27T22:44:40.634Z,100855.53
2023-04-27T22:47:12.341Z,100841.50
2023-04-27T22:49:43.532Z,100838.06
2023-04-27T22:52:14.001Z,100832.84
2023-04-27T22:54:44.535Z,100821.53
2023-04-27T22:57:15.108Z,100814.53
2023-04-27T22:59:45.501Z,100808.38
2023-04-27T23:02:15.861Z,100803.13
2023-04-27T23:04:46.285Z,100795.28
2023-04-27T23:07:20.076Z,100787.44
2023-04-27T23:09:51.271Z,100788.28
2023-04-27T23:12:22.321Z,100788.28
2023-04-27T23:14:52.670Z,100787.38
2023-04-27T23:17:24.248Z,100797.84
2023-04-27T23:19:54.595Z,100787.38
2023-04-27T23:22:24.998Z,100779.53
2023-04-27T23:24:56.291Z,100782.16
2023-04-27T23:27:27.003Z,100793.44
2023-04-27T23:29:58.028Z,100790.84
2023-04-27T23:32:28.702Z,100783.81
2023-04-27T23:35:00.569Z,100788.13
2023-04-27T23:37:31.167Z,100787.28
2023-04-27T23:40:01.518Z,100788.03
2023-04-27T23:42:32.643Z,100777.56
2023-04-27T23:45:03.824Z,100781.94
2023-04-27T23:47:35.282Z,100770.66
2023-04-27T23:50:05.819Z,100771.50
2023-04-27T23:52:36.410Z,100767.09
2023-04-27T23:55:07.577Z,100760.19
2023-04-27T23:57:37.864Z,100748.78
